Grass Valley, California
Current Conditions -  °F | °C
As of 12:35 PM on Monday 22 Dec 2014 (Local Time) from KGOO Reporting Station
Clear Clear  
Wind Chill: 59°   Ceiling: Unl
Heat Index: 59°   Visibility: 10mi
Dew Point: 48°   Wind: 5mph
Humidity: 67%   Direction: 350°N
Pressure: 30.23"   Gusts: NA
Location:  39.22°N, 121.06°W
Report Text: KGOO 222035Z AUTO 35004KT 10SM CLR 15/09 A3023 RMK AO1
Loading
Personal Weather Stations






























Interactive Weather Map New forecast layout! Learn more

10-Day Weather Forecast

Advertisements
Track Severe Weather on mobile